Aérodrome :
LOGIN :

S'inscrire | Disclaimer

   EN    FR    IT 

 










Légende :    VFR   VFR Marginal   IFR   IFR Intensif   IFR Très Intensif
Visi : 
Plafond : 
>= 8 km
>= 3000ft
5 à 8 km
1000 à 3000 ft
1500m à 5 km
500 à 1000 ft
800 à 1500m
200 à 500 ft
< 800m
< 200 ft
Symboles :   Orages  Brouillard  Fortes neiges  Fortes précipitations  Vent > 20 kt
SIGMETs :   Divers  Orages  Givrage  Turbulence  Onde Orograph.  Cendres Volcan.






- Altitude de l'aérodrome : 659 ft
- Code IATA : LGG


EBLG - Liège

DERNIER METAR :
  • 050650Z 18009KT CAVOK 19/07 Q1018 NOSIG

METARs EXPIRÉS :
  • 050620Z 17009KT CAVOK 17/07 Q1017 NOSIG
  • 050550Z 16008KT 120V210 CAVOK 16/07 Q1017 NOSIG
  • 050520Z 18006KT CAVOK 15/07 Q1017 NOSIG
  • 050450Z 16007KT CAVOK 15/07 Q1017 NOSIG
  • 050420Z 15009KT CAVOK 14/07 Q1017 NOSIG

TAF TAF EBLG
Valide du 05 à 06h jusqu'au 06 à 12h UTC


050500Z 0506/0612 19005KT CAVOK



MET'MAP, la Météo Aéronautique d'un coup d'oeil ! - Copyright ORBIFLY Décembre 2007 - Disclaimer

ORBIFLY MET'MAP TEAM :

Programmation & Développement : Alexandra Zaïnal
Sur une idée originale de : Baudouin d'Aumeries
Assistance à la programmation : Marc-Olivier Méhu
Soutien technique & logistique : Manuel Goepfert

Contact : metmap@orbifly.com




SOURCES & CREDITS :

   NOAA